Laura, Illinois
Current Conditions -  °F | °C
As of 2:22 PM on Wednesday 26 Nov 2014 (Local Time) from KPIA Reporting Station
Light Snow Light Snow  
Wind Chill: 24°   Ceiling: 1300
Heat Index: 32°   Visibility: 2mi
Dew Point: 25°   Wind: 10mph
Humidity: 75%   Direction: 100°E
Pressure: 30.06"   Gusts: NA
Location:  40.92°N, 89.93°W
Report Text: KPIA 262022Z 10009KT 2SM -SN OVC013 00/M04 A3006 RMK AO2 SNB11 P0000 T00001039
Loading
Personal Weather Stations






























Interactive Weather Map New forecast layout! Learn more

10-Day Weather Forecast

Advertisements
Track Severe Weather on mobile